sensor_id;sensor_type;location;lat;lon;timestamp;pressure;altitude;pressure_sealevel;temperature;humidity
17649;BME280;8943;51.110;-4.158;2023-01-30T00:00:08;102068.94;;;14.53;60.70
17649;BME280;8943;51.110;-4.158;2023-01-30T00:02:36;102071.31;;;14.57;60.42
17649;BME280;8943;51.110;-4.158;2023-01-30T00:05:07;102070.34;;;14.58;60.42
17649;BME280;8943;51.110;-4.158;2023-01-30T00:07:35;102067.66;;;14.58;60.39
17649;BME280;8943;51.110;-4.158;2023-01-30T00:10:06;102078.38;;;14.58;60.44
17649;BME280;8943;51.110;-4.158;2023-01-30T00:12:34;102084.94;;;14.54;60.56
17649;BME280;8943;51.110;-4.158;2023-01-30T00:15:03;102083.19;;;14.53;60.73
17649;BME280;8943;51.110;-4.158;2023-01-30T00:17:31;102082.81;;;14.59;60.52
17649;BME280;8943;51.110;-4.158;2023-01-30T00:20:00;102080.88;;;14.61;60.54
17649;BME280;8943;51.110;-4.158;2023-01-30T00:22:28;102082.03;;;14.57;60.75
17649;BME280;8943;51.110;-4.158;2023-01-30T00:24:56;102078.81;;;14.52;60.27
17649;BME280;8943;51.110;-4.158;2023-01-30T00:27:26;102078.59;;;14.55;60.88
17649;BME280;8943;51.110;-4.158;2023-01-30T00:29:54;102058.97;;;14.55;60.42
17649;BME280;8943;51.110;-4.158;2023-01-30T00:32:29;102070.56;;;14.55;60.46
17649;BME280;8943;51.110;-4.158;2023-01-30T00:34:57;102073.31;;;14.54;60.64
17649;BME280;8943;51.110;-4.158;2023-01-30T00:37:25;102061.53;;;14.56;60.67
17649;BME280;8943;51.110;-4.158;2023-01-30T00:39:53;102074.97;;;14.56;60.45
17649;BME280;8943;51.110;-4.158;2023-01-30T00:42:21;102065.09;;;14.57;60.71
17649;BME280;8943;51.110;-4.158;2023-01-30T00:45:10;102050.81;;;14.56;60.53
17649;BME280;8943;51.110;-4.158;2023-01-30T00:47:56;102056.50;;;14.52;60.58
17649;BME280;8943;51.110;-4.158;2023-01-30T00:50:25;102046.19;;;14.58;60.52
17649;BME280;8943;51.110;-4.158;2023-01-30T00:53:09;102033.34;;;14.51;60.63
17649;BME280;8943;51.110;-4.158;2023-01-30T00:55:37;102042.97;;;14.53;60.65
17649;BME280;8943;51.110;-4.158;2023-01-30T00:58:06;102028.81;;;14.51;60.48
17649;BME280;8943;51.110;-4.158;2023-01-30T01:00:35;102034.72;;;14.56;60.51
17649;BME280;8943;51.110;-4.158;2023-01-30T01:03:04;102019.06;;;14.50;61.01
17649;BME280;8943;51.110;-4.158;2023-01-30T01:05:33;102031.31;;;14.54;60.67
17649;BME280;8943;51.110;-4.158;2023-01-30T01:08:02;102027.38;;;14.46;60.80
17649;BME280;8943;51.110;-4.158;2023-01-30T01:10:31;102033.94;;;14.41;61.15
17649;BME280;8943;51.110;-4.158;2023-01-30T01:12:59;102045.31;;;14.45;60.89
17649;BME280;8943;51.110;-4.158;2023-01-30T01:15:28;102043.78;;;14.41;61.19
17649;BME280;8943;51.110;-4.158;2023-01-30T01:17:59;102028.69;;;14.40;61.33
17649;BME280;8943;51.110;-4.158;2023-01-30T01:20:27;102031.91;;;14.45;60.90
17649;BME280;8943;51.110;-4.158;2023-01-30T01:22:55;102027.06;;;14.37;61.63
17649;BME280;8943;51.110;-4.158;2023-01-30T01:25:24;102026.38;;;14.34;61.69
17649;BME280;8943;51.110;-4.158;2023-01-30T01:27:53;102026.63;;;14.43;61.52
17649;BME280;8943;51.110;-4.158;2023-01-30T01:30:21;102053.56;;;14.42;61.46
17649;BME280;8943;51.110;-4.158;2023-01-30T01:32:49;102034.78;;;14.42;61.33
17649;BME280;8943;51.110;-4.158;2023-01-30T01:35:19;102040.34;;;14.39;61.88
17649;BME280;8943;51.110;-4.158;2023-01-30T01:37:47;102038.19;;;14.44;61.81
17649;BME280;8943;51.110;-4.158;2023-01-30T01:40:20;102025.34;;;14.36;62.08
17649;BME280;8943;51.110;-4.158;2023-01-30T01:43:16;102019.00;;;14.37;62.07
17649;BME280;8943;51.110;-4.158;2023-01-30T01:45:46;102014.63;;;14.36;62.05
17649;BME280;8943;51.110;-4.158;2023-01-30T01:48:21;102022.78;;;14.35;62.10
17649;BME280;8943;51.110;-4.158;2023-01-30T01:50:57;102018.88;;;14.39;62.27
17649;BME280;8943;51.110;-4.158;2023-01-30T01:53:28;102025.75;;;14.43;62.01
17649;BME280;8943;51.110;-4.158;2023-01-30T01:55:58;102016.75;;;14.44;61.89
17649;BME280;8943;51.110;-4.158;2023-01-30T01:58:30;102023.09;;;14.43;62.17
17649;BME280;8943;51.110;-4.158;2023-01-30T02:01:03;102025.75;;;14.43;62.05
17649;BME280;8943;51.110;-4.158;2023-01-30T02:03:33;102023.09;;;14.43;61.98
17649;BME280;8943;51.110;-4.158;2023-01-30T02:06:06;102018.50;;;14.45;61.97
17649;BME280;8943;51.110;-4.158;2023-01-30T02:08:37;102010.66;;;14.42;61.70
17649;BME280;8943;51.110;-4.158;2023-01-30T02:11:09;102013.88;;;14.47;62.09
17649;BME280;8943;51.110;-4.158;2023-01-30T02:13:39;102008.63;;;14.46;62.15
17649;BME280;8943;51.110;-4.158;2023-01-30T02:16:07;102014.63;;;14.49;61.82
17649;BME280;8943;51.110;-4.158;2023-01-30T02:18:39;102013.78;;;14.49;62.09
17649;BME280;8943;51.110;-4.158;2023-01-30T02:21:41;102018.94;;;14.52;61.96
17649;BME280;8943;51.110;-4.158;2023-01-30T02:24:36;102027.34;;;14.60;61.63
17649;BME280;8943;51.110;-4.158;2023-01-30T02:27:37;102024.53;;;14.61;61.58
17649;BME280;8943;51.110;-4.158;2023-01-30T02:30:41;102033.44;;;14.62;61.62
17649;BME280;8943;51.110;-4.158;2023-01-30T02:33:15;102026.25;;;14.62;61.75
17649;BME280;8943;51.110;-4.158;2023-01-30T02:35:50;102030.44;;;14.66;61.45
17649;BME280;8943;51.110;-4.158;2023-01-30T02:38:31;102029.69;;;14.64;61.38
17649;BME280;8943;51.110;-4.158;2023-01-30T02:41:12;102032.13;;;14.67;61.36
17649;BME280;8943;51.110;-4.158;2023-01-30T02:43:52;102028.59;;;14.67;61.33
17649;BME280;8943;51.110;-4.158;2023-01-30T02:46:25;102034.63;;;14.71;60.97
17649;BME280;8943;51.110;-4.158;2023-01-30T02:49:01;102034.38;;;14.74;61.40
17649;BME280;8943;51.110;-4.158;2023-01-30T02:51:34;102020.03;;;14.75;61.25
17649;BME280;8943;51.110;-4.158;2023-01-30T02:54:04;102018.50;;;14.83;61.22
17649;BME280;8943;51.110;-4.158;2023-01-30T02:56:48;102019.59;;;14.81;60.93
17649;BME280;8943;51.110;-4.158;2023-01-30T02:59:20;102030.13;;;14.84;60.92
17649;BME280;8943;51.110;-4.158;2023-01-30T03:02:06;102033.97;;;14.80;61.09
17649;BME280;8943;51.110;-4.158;2023-01-30T03:04:51;102026.00;;;14.78;61.37
17649;BME280;8943;51.110;-4.158;2023-01-30T03:07:32;102025.41;;;14.75;60.80
17649;BME280;8943;51.110;-4.158;2023-01-30T03:10:08;102025.41;;;14.75;60.73
17649;BME280;8943;51.110;-4.158;2023-01-30T03:12:46;102025.06;;;14.66;60.67
17649;BME280;8943;51.110;-4.158;2023-01-30T03:15:22;102027.94;;;14.63;60.58
17649;BME280;8943;51.110;-4.158;2023-01-30T03:17:56;102034.41;;;14.61;60.23
17649;BME280;8943;51.110;-4.158;2023-01-30T03:20:24;102046.44;;;14.55;60.22
17649;BME280;8943;51.110;-4.158;2023-01-30T03:22:52;102051.00;;;14.53;60.36
17649;BME280;8943;51.110;-4.158;2023-01-30T03:25:22;102053.16;;;14.48;60.34
17649;BME280;8943;51.110;-4.158;2023-01-30T03:27:53;102054.09;;;14.47;60.25
17649;BME280;8943;51.110;-4.158;2023-01-30T03:30:23;102049.69;;;14.46;60.21
17649;BME280;8943;51.110;-4.158;2023-01-30T03:32:52;102046.38;;;14.42;59.99
17649;BME280;8943;51.110;-4.158;2023-01-30T03:35:21;102047.22;;;14.43;59.99
17649;BME280;8943;51.110;-4.158;2023-01-30T03:37:49;102055.50;;;14.40;59.94
17649;BME280;8943;51.110;-4.158;2023-01-30T03:40:18;102055.69;;;14.37;59.73
17649;BME280;8943;51.110;-4.158;2023-01-30T03:42:46;102059.97;;;14.39;59.53
17649;BME280;8943;51.110;-4.158;2023-01-30T03:45:14;102063.84;;;14.35;59.78
17649;BME280;8943;51.110;-4.158;2023-01-30T03:47:43;102055.88;;;14.34;59.20
17649;BME280;8943;51.110;-4.158;2023-01-30T03:50:11;102054.72;;;14.25;58.76
17649;BME280;8943;51.110;-4.158;2023-01-30T03:52:40;102064.44;;;14.13;57.99
17649;BME280;8943;51.110;-4.158;2023-01-30T03:55:08;102064.28;;;14.02;57.79
17649;BME280;8943;51.110;-4.158;2023-01-30T03:57:37;102062.53;;;13.88;57.55
17649;BME280;8943;51.110;-4.158;2023-01-30T04:00:06;102074.69;;;13.80;57.24
17649;BME280;8943;51.110;-4.158;2023-01-30T04:02:34;102081.63;;;13.70;57.33
17649;BME280;8943;51.110;-4.158;2023-01-30T04:05:05;102093.69;;;13.62;57.47
17649;BME280;8943;51.110;-4.158;2023-01-30T04:07:33;102095.81;;;13.57;56.85
17649;BME280;8943;51.110;-4.158;2023-01-30T04:10:03;102103.28;;;13.52;56.79
17649;BME280;8943;51.110;-4.158;2023-01-30T04:12:31;102098.13;;;13.49;56.65
17649;BME280;8943;51.110;-4.158;2023-01-30T04:14:59;102103.28;;;13.52;56.36
17649;BME280;8943;51.110;-4.158;2023-01-30T04:17:27;102100.03;;;13.47;56.10
17649;BME280;8943;51.110;-4.158;2023-01-30T04:19:55;102098.50;;;13.43;55.76
17649;BME280;8943;51.110;-4.158;2023-01-30T04:22:23;102103.47;;;13.35;55.56
17649;BME280;8943;51.110;-4.158;2023-01-30T04:24:51;102108.38;;;13.28;55.16
17649;BME280;8943;51.110;-4.158;2023-01-30T04:27:21;102110.63;;;13.20;54.77
17649;BME280;8943;51.110;-4.158;2023-01-30T04:29:49;102105.44;;;13.17;54.25
17649;BME280;8943;51.110;-4.158;2023-01-30T04:32:17;102112.44;;;13.05;53.79
17649;BME280;8943;51.110;-4.158;2023-01-30T04:34:45;102120.00;;;12.99;53.17
17649;BME280;8943;51.110;-4.158;2023-01-30T04:37:13;102116.81;;;12.92;53.32
17649;BME280;8943;51.110;-4.158;2023-01-30T04:39:41;102125.03;;;12.89;52.99
17649;BME280;8943;51.110;-4.158;2023-01-30T04:42:09;102126.28;;;12.83;53.00
17649;BME280;8943;51.110;-4.158;2023-01-30T04:44:38;102125.59;;;12.80;52.73
17649;BME280;8943;51.110;-4.158;2023-01-30T04:47:06;102117.94;;;12.74;52.65
17649;BME280;8943;51.110;-4.158;2023-01-30T04:49:34;102120.69;;;12.72;52.53
17649;BME280;8943;51.110;-4.158;2023-01-30T04:52:03;102113.72;;;12.70;51.94
17649;BME280;8943;51.110;-4.158;2023-01-30T04:54:31;102128.03;;;12.69;51.95
17649;BME280;8943;51.110;-4.158;2023-01-30T04:56:59;102131.94;;;12.63;52.07
17649;BME280;8943;51.110;-4.158;2023-01-30T04:59:27;102123.06;;;12.62;51.94
17649;BME280;8943;51.110;-4.158;2023-01-30T05:01:57;102127.66;;;12.60;51.71
17649;BME280;8943;51.110;-4.158;2023-01-30T05:04:25;102125.84;;;12.61;51.48
17649;BME280;8943;51.110;-4.158;2023-01-30T05:06:53;102137.50;;;12.60;51.38
17649;BME280;8943;51.110;-4.158;2023-01-30T05:09:21;102127.81;;;12.57;51.61
17649;BME280;8943;51.110;-4.158;2023-01-30T05:11:49;102136.69;;;12.58;51.56
17649;BME280;8943;51.110;-4.158;2023-01-30T05:14:18;102149.03;;;12.60;51.80
17649;BME280;8943;51.110;-4.158;2023-01-30T05:16:46;102150.00;;;12.59;51.57
17649;BME280;8943;51.110;-4.158;2023-01-30T05:19:15;102157.22;;;12.57;51.68
17649;BME280;8943;51.110;-4.158;2023-01-30T05:21:43;102159.75;;;12.60;51.31
17649;BME280;8943;51.110;-4.158;2023-01-30T05:24:12;102165.09;;;12.60;51.63
17649;BME280;8943;51.110;-4.158;2023-01-30T05:26:40;102172.06;;;12.63;51.47
17649;BME280;8943;51.110;-4.158;2023-01-30T05:29:09;102178.25;;;12.63;51.58
17649;BME280;8943;51.110;-4.158;2023-01-30T05:31:37;102190.59;;;12.66;51.43
17649;BME280;8943;51.110;-4.158;2023-01-30T05:34:05;102196.72;;;12.68;51.23
17649;BME280;8943;51.110;-4.158;2023-01-30T05:36:34;102195.84;;;12.68;51.18
17649;BME280;8943;51.110;-4.158;2023-01-30T05:39:02;102197.66;;;12.67;51.03
17649;BME280;8943;51.110;-4.158;2023-01-30T05:41:31;102209.22;;;12.68;51.18
17649;BME280;8943;51.110;-4.158;2023-01-30T05:43:59;102209.16;;;12.69;51.22
17649;BME280;8943;51.110;-4.158;2023-01-30T05:46:27;102195.00;;;12.67;51.28
17649;BME280;8943;51.110;-4.158;2023-01-30T05:48:55;102200.25;;;12.69;50.98
17649;BME280;8943;51.110;-4.158;2023-01-30T05:51:25;102200.16;;;12.70;50.94
17649;BME280;8943;51.110;-4.158;2023-01-30T05:53:55;102202.91;;;12.69;50.53
17649;BME280;8943;51.110;-4.158;2023-01-30T05:56:23;102207.34;;;12.70;50.52
17649;BME280;8943;51.110;-4.158;2023-01-30T05:58:52;102220.78;;;12.68;50.31
17649;BME280;8943;51.110;-4.158;2023-01-30T06:01:24;102223.56;;;12.67;50.08
17649;BME280;8943;51.110;-4.158;2023-01-30T06:03:52;102221.03;;;12.63;50.11
17649;BME280;8943;51.110;-4.158;2023-01-30T06:06:21;102218.38;;;12.63;50.11
17649;BME280;8943;51.110;-4.158;2023-01-30T06:08:52;102221.94;;;12.64;50.10
17649;BME280;8943;51.110;-4.158;2023-01-30T06:11:22;102222.84;;;12.63;50.00
17649;BME280;8943;51.110;-4.158;2023-01-30T06:13:50;102233.66;;;12.61;49.84
17649;BME280;8943;51.110;-4.158;2023-01-30T06:16:18;102230.13;;;12.61;49.71
17649;BME280;8943;51.110;-4.158;2023-01-30T06:18:47;102224.78;;;12.61;49.81
17649;BME280;8943;51.110;-4.158;2023-01-30T06:21:15;102234.69;;;12.59;49.88
17649;BME280;8943;51.110;-4.158;2023-01-30T06:23:43;102239.16;;;12.58;49.88
17649;BME280;8943;51.110;-4.158;2023-01-30T06:26:11;102232.09;;;12.57;49.70
17649;BME280;8943;51.110;-4.158;2023-01-30T06:28:42;102226.59;;;12.60;49.68
17649;BME280;8943;51.110;-4.158;2023-01-30T06:31:10;102230.88;;;12.63;49.86
17649;BME280;8943;51.110;-4.158;2023-01-30T06:33:38;102237.09;;;12.63;49.65
17649;BME280;8943;51.110;-4.158;2023-01-30T06:36:07;102243.41;;;12.62;49.65
17649;BME280;8943;51.110;-4.158;2023-01-30T06:38:35;102243.31;;;12.64;49.50
17649;BME280;8943;51.110;-4.158;2023-01-30T06:41:03;102245.91;;;12.66;49.47
17649;BME280;8943;51.110;-4.158;2023-01-30T06:43:31;102244.00;;;12.68;49.58
17649;BME280;8943;51.110;-4.158;2023-01-30T06:46:01;102236.16;;;12.65;49.71
17649;BME280;8943;51.110;-4.158;2023-01-30T06:48:29;102227.56;;;12.59;49.64
17649;BME280;8943;51.110;-4.158;2023-01-30T06:50:59;102236.75;;;12.54;49.36
17649;BME280;8943;51.110;-4.158;2023-01-30T06:53:27;102237.97;;;12.48;49.63
17649;BME280;8943;51.110;-4.158;2023-01-30T06:55:57;102238.69;;;12.36;49.95
17649;BME280;8943;51.110;-4.158;2023-01-30T06:58:25;102236.69;;;12.24;50.04
17649;BME280;8943;51.110;-4.158;2023-01-30T07:00:54;102250.56;;;12.15;50.01
17649;BME280;8943;51.110;-4.158;2023-01-30T07:03:23;102251.97;;;12.06;49.79
17649;BME280;8943;51.110;-4.158;2023-01-30T07:05:51;102261.09;;;12.02;49.85
17649;BME280;8943;51.110;-4.158;2023-01-30T07:08:19;102261.34;;;11.97;50.22
17649;BME280;8943;51.110;-4.158;2023-01-30T07:10:49;102254.53;;;11.92;50.25
17649;BME280;8943;51.110;-4.158;2023-01-30T07:13:19;102261.75;;;11.90;50.26
17649;BME280;8943;51.110;-4.158;2023-01-30T07:15:47;102265.47;;;11.87;50.37
17649;BME280;8943;51.110;-4.158;2023-01-30T07:18:15;102257.81;;;11.79;50.07
17649;BME280;8943;51.110;-4.158;2023-01-30T07:20:48;102280.47;;;11.72;50.21
17649;BME280;8943;51.110;-4.158;2023-01-30T07:23:16;102279.06;;;11.65;50.41
17649;BME280;8943;51.110;-4.158;2023-01-30T07:25:44;102285.44;;;11.63;50.11
17649;BME280;8943;51.110;-4.158;2023-01-30T07:28:12;102275.84;;;11.58;50.19
17649;BME280;8943;51.110;-4.158;2023-01-30T07:30:40;102280.34;;;11.58;49.91
17649;BME280;8943;51.110;-4.158;2023-01-30T07:33:09;102288.97;;;11.63;49.57
17649;BME280;8943;51.110;-4.158;2023-01-30T07:35:37;102287.06;;;11.65;49.79
17649;BME280;8943;51.110;-4.158;2023-01-30T07:38:06;102294.84;;;11.70;49.77
17649;BME280;8943;51.110;-4.158;2023-01-30T07:40:34;102298.91;;;11.77;49.64
17649;BME280;8943;51.110;-4.158;2023-01-30T07:43:04;102304.16;;;11.78;49.91
17649;BME280;8943;51.110;-4.158;2023-01-30T07:45:35;102314.56;;;11.84;49.60
17649;BME280;8943;51.110;-4.158;2023-01-30T07:48:04;102319.66;;;11.89;49.40
17649;BME280;8943;51.110;-4.158;2023-01-30T07:50:33;102315.00;;;11.93;49.04
17649;BME280;8943;51.110;-4.158;2023-01-30T07:53:02;102321.75;;;12.00;49.08
17649;BME280;8943;51.110;-4.158;2023-01-30T07:55:32;102320.63;;;12.04;49.00
17649;BME280;8943;51.110;-4.158;2023-01-30T07:58:01;102316.94;;;12.06;48.75
17649;BME280;8943;51.110;-4.158;2023-01-30T08:00:29;102315.03;;;12.08;48.80
17649;BME280;8943;51.110;-4.158;2023-01-30T08:02:58;102315.75;;;12.12;48.79
17649;BME280;8943;51.110;-4.158;2023-01-30T08:05:26;102320.22;;;12.11;48.58
17649;BME280;8943;51.110;-4.158;2023-01-30T08:07:54;102326.19;;;12.17;48.44
17649;BME280;8943;51.110;-4.158;2023-01-30T08:10:23;102324.28;;;12.19;48.01
17649;BME280;8943;51.110;-4.158;2023-01-30T08:12:53;102330.41;;;12.21;48.20
17649;BME280;8943;51.110;-4.158;2023-01-30T08:15:21;102332.16;;;12.22;47.96
17649;BME280;8943;51.110;-4.158;2023-01-30T08:17:53;102326.94;;;12.19;47.73
17649;BME280;8943;51.110;-4.158;2023-01-30T08:20:23;102322.72;;;12.15;47.60
17649;BME280;8943;51.110;-4.158;2023-01-30T08:22:51;102319.28;;;12.13;47.65
17649;BME280;8943;51.110;-4.158;2023-01-30T08:25:19;102319.28;;;12.13;47.39
17649;BME280;8943;51.110;-4.158;2023-01-30T08:27:48;102312.13;;;12.13;47.32
17649;BME280;8943;51.110;-4.158;2023-01-30T08:30:18;102321.19;;;12.10;47.36
17649;BME280;8943;51.110;-4.158;2023-01-30T08:32:47;102324.09;;;12.06;47.55
17649;BME280;8943;51.110;-4.158;2023-01-30T08:35:15;102323.25;;;12.05;47.50
17649;BME280;8943;51.110;-4.158;2023-01-30T08:37:44;102333.94;;;12.05;47.36
17649;BME280;8943;51.110;-4.158;2023-01-30T08:40:12;102335.03;;;12.01;46.88
17649;BME280;8943;51.110;-4.158;2023-01-30T08:42:42;102336.75;;;12.02;46.83
17649;BME280;8943;51.110;-4.158;2023-01-30T08:45:10;102341.06;;;12.05;46.59
17649;BME280;8943;51.110;-4.158;2023-01-30T08:47:40;102340.03;;;12.07;46.49
17649;BME280;8943;51.110;-4.158;2023-01-30T08:50:09;102347.91;;;12.10;46.55
17649;BME280;8943;51.110;-4.158;2023-01-30T08:52:37;102342.47;;;12.12;46.26
17649;BME280;8943;51.110;-4.158;2023-01-30T08:55:06;102340.66;;;12.13;46.38
17649;BME280;8943;51.110;-4.158;2023-01-30T08:57:35;102341.25;;;12.18;46.53
17649;BME280;8943;51.110;-4.158;2023-01-30T09:00:05;102341.25;;;12.18;46.46
17649;BME280;8943;51.110;-4.158;2023-01-30T09:02:34;102329.63;;;12.19;46.25
17649;BME280;8943;51.110;-4.158;2023-01-30T09:05:05;102333.16;;;12.19;46.58
17649;BME280;8943;51.110;-4.158;2023-01-30T09:07:33;102355.59;;;12.17;46.26
17649;BME280;8943;51.110;-4.158;2023-01-30T09:10:02;102359.88;;;12.19;46.31
17649;BME280;8943;51.110;-4.158;2023-01-30T09:12:30;102372.94;;;12.25;46.40
17649;BME280;8943;51.110;-4.158;2023-01-30T09:14:59;102377.13;;;12.29;46.25
17649;BME280;8943;51.110;-4.158;2023-01-30T09:17:27;102390.19;;;12.35;46.35
17649;BME280;8943;51.110;-4.158;2023-01-30T09:19:55;102386.47;;;12.38;46.18
17649;BME280;8943;51.110;-4.158;2023-01-30T09:22:25;102383.56;;;12.43;46.05
17649;BME280;8943;51.110;-4.158;2023-01-30T09:24:53;102374.50;;;12.45;45.92
17649;BME280;8943;51.110;-4.158;2023-01-30T09:27:21;102364.44;;;12.50;45.52
17649;BME280;8943;51.110;-4.158;2023-01-30T09:29:50;102357.28;;;12.51;45.69
17649;BME280;8943;51.110;-4.158;2023-01-30T09:32:18;102350.97;;;12.52;45.86
17649;BME280;8943;51.110;-4.158;2023-01-30T09:34:47;102346.31;;;12.55;46.03
17649;BME280;8943;51.110;-4.158;2023-01-30T09:37:15;102358.22;;;12.50;46.20
17649;BME280;8943;51.110;-4.158;2023-01-30T09:39:44;102368.66;;;12.54;45.70
17649;BME280;8943;51.110;-4.158;2023-01-30T09:42:43;102388.84;;;12.60;45.92
17649;BME280;8943;51.110;-4.158;2023-01-30T09:45:28;102401.88;;;12.66;45.80
17649;BME280;8943;51.110;-4.158;2023-01-30T09:48:06;102409.50;;;12.74;45.47
17649;BME280;8943;51.110;-4.158;2023-01-30T09:51:09;102410.75;;;12.82;45.18
17649;BME280;8943;51.110;-4.158;2023-01-30T09:53:52;102414.47;;;12.96;45.00
17649;BME280;8943;51.110;-4.158;2023-01-30T09:56:27;102424.06;;;13.00;45.08
17649;BME280;8943;51.110;-4.158;2023-01-30T09:58:57;102436.06;;;13.08;44.91
17649;BME280;8943;51.110;-4.158;2023-01-30T10:01:31;102430.53;;;13.11;44.71
17649;BME280;8943;51.110;-4.158;2023-01-30T10:04:08;102425.78;;;13.17;45.06
17649;BME280;8943;51.110;-4.158;2023-01-30T10:06:47;102425.59;;;13.20;44.79
17649;BME280;8943;51.110;-4.158;2023-01-30T10:09:26;102437.13;;;13.22;44.64
17649;BME280;8943;51.110;-4.158;2023-01-30T10:12:07;102442.13;;;13.28;44.49
17649;BME280;8943;51.110;-4.158;2023-01-30T10:14:56;102442.63;;;13.34;44.54
17649;BME280;8943;51.110;-4.158;2023-01-30T10:17:33;102451.63;;;13.33;44.74
17649;BME280;8943;51.110;-4.158;2023-01-30T10:20:29;102470.88;;;13.40;44.82
17649;BME280;8943;51.110;-4.158;2023-01-30T10:23:14;102482.28;;;13.44;44.71
17649;BME280;8943;51.110;-4.158;2023-01-30T10:25:48;102465.34;;;13.43;44.40
17649;BME280;8943;51.110;-4.158;2023-01-30T10:28:22;102472.53;;;13.43;43.90
17649;BME280;8943;51.110;-4.158;2023-01-30T10:30:54;102473.44;;;13.42;44.16
17649;BME280;8943;51.110;-4.158;2023-01-30T10:33:27;102483.13;;;13.44;44.07
17649;BME280;8943;51.110;-4.158;2023-01-30T10:36:02;102465.09;;;13.48;43.62
17649;BME280;8943;51.110;-4.158;2023-01-30T10:38:36;102474.03;;;13.47;44.11
17649;BME280;8943;51.110;-4.158;2023-01-30T10:41:14;102478.53;;;13.46;44.26
17649;BME280;8943;51.110;-4.158;2023-01-30T10:43:58;102479.50;;;13.45;44.33
17649;BME280;8943;51.110;-4.158;2023-01-30T10:46:40;102474.94;;;13.47;44.36
17649;BME280;8943;51.110;-4.158;2023-01-30T10:49:18;102489.25;;;13.46;44.46
17649;BME280;8943;51.110;-4.158;2023-01-30T10:51:56;102478.03;;;13.39;44.25
17649;BME280;8943;51.110;-4.158;2023-01-30T10:54:34;102484.41;;;13.37;44.38
17649;BME280;8943;51.110;-4.158;2023-01-30T10:57:12;102486.50;;;13.32;44.17
17649;BME280;8943;51.110;-4.158;2023-01-30T10:59:51;102494.13;;;13.24;44.26
17649;BME280;8943;51.110;-4.158;2023-01-30T11:02:24;102496.84;;;13.22;44.70
17649;BME280;8943;51.110;-4.158;2023-01-30T11:04:57;102502.38;;;13.19;44.94
17649;BME280;8943;51.110;-4.158;2023-01-30T11:07:29;102512.06;;;13.22;44.85
17649;BME280;8943;51.110;-4.158;2023-01-30T11:10:00;102511.13;;;13.23;45.16
17649;BME280;8943;51.110;-4.158;2023-01-30T11:12:30;102512.00;;;13.23;45.17
17649;BME280;8943;51.110;-4.158;2023-01-30T11:15:01;102499.38;;;13.25;45.07
17649;BME280;8943;51.110;-4.158;2023-01-30T11:17:32;102507.91;;;13.32;45.26
17649;BME280;8943;51.110;-4.158;2023-01-30T11:20:06;102503.97;;;13.39;45.42
17649;BME280;8943;51.110;-4.158;2023-01-30T11:22:44;102512.50;;;13.46;45.26
17649;BME280;8943;51.110;-4.158;2023-01-30T11:25:15;102499.97;;;13.46;45.41
17649;BME280;8943;51.110;-4.158;2023-01-30T11:27:52;102511.28;;;13.51;45.31
17649;BME280;8943;51.110;-4.158;2023-01-30T11:30:27;102510.34;;;13.52;45.29
17649;BME280;8943;51.110;-4.158;2023-01-30T11:33:05;102503.84;;;13.56;45.28
17649;BME280;8943;51.110;-4.158;2023-01-30T11:35:41;102497.34;;;13.60;44.39
17649;BME280;8943;51.110;-4.158;2023-01-30T11:38:16;102515.34;;;13.58;44.12
17649;BME280;8943;51.110;-4.158;2023-01-30T11:40:46;102498.69;;;13.53;44.34
17649;BME280;8943;51.110;-4.158;2023-01-30T11:43:14;102509.03;;;13.59;44.16
17649;BME280;8943;51.110;-4.158;2023-01-30T11:45:47;102499.97;;;13.62;44.17
17649;BME280;8943;51.110;-4.158;2023-01-30T11:48:18;102501.75;;;13.61;43.70
17649;BME280;8943;51.110;-4.158;2023-01-30T11:51:08;102492.00;;;13.60;43.82
17649;BME280;8943;51.110;-4.158;2023-01-30T11:53:39;102508.94;;;13.61;44.21
17649;BME280;8943;51.110;-4.158;2023-01-30T11:56:14;102499.06;;;13.61;44.52
17649;BME280;8943;51.110;-4.158;2023-01-30T11:58:48;102504.00;;;13.69;44.15
17649;BME280;8943;51.110;-4.158;2023-01-30T12:01:27;102514.03;;;13.65;43.85
17649;BME280;8943;51.110;-4.158;2023-01-30T12:03:57;102496.94;;;13.68;43.81
17649;BME280;8943;51.110;-4.158;2023-01-30T12:06:29;102500.63;;;13.65;43.42
17649;BME280;8943;51.110;-4.158;2023-01-30T12:08:58;102491.66;;;13.67;43.69
17649;BME280;8943;51.110;-4.158;2023-01-30T12:11:29;102477.91;;;13.73;43.53
17649;BME280;8943;51.110;-4.158;2023-01-30T12:14:13;102474.44;;;13.71;44.23
17649;BME280;8943;51.110;-4.158;2023-01-30T12:16:59;102481.44;;;13.73;44.16
17649;BME280;8943;51.110;-4.158;2023-01-30T12:19:48;102491.78;;;13.79;44.54
17649;BME280;8943;51.110;-4.158;2023-01-30T12:22:21;102485.03;;;13.88;44.51
17649;BME280;8943;51.110;-4.158;2023-01-30T12:25:00;102475.66;;;13.95;44.35
17649;BME280;8943;51.110;-4.158;2023-01-30T12:27:45;102484.97;;;14.04;44.11
17649;BME280;8943;51.110;-4.158;2023-01-30T12:30:25;102481.53;;;14.02;44.04
17649;BME280;8943;51.110;-4.158;2023-01-30T12:32:58;102473.56;;;14.00;44.12
17649;BME280;8943;51.110;-4.158;2023-01-30T12:35:35;102466.13;;;14.05;43.90
17649;BME280;8943;51.110;-4.158;2023-01-30T12:38:16;102473.25;;;14.21;43.32
17649;BME280;8943;51.110;-4.158;2023-01-30T12:40:53;102471.59;;;14.18;43.08
17649;BME280;8943;51.110;-4.158;2023-01-30T12:43:54;102474.59;;;14.28;43.09
17649;BME280;8943;51.110;-4.158;2023-01-30T12:46:47;102479.53;;;14.20;42.97
17649;BME280;8943;51.110;-4.158;2023-01-30T12:49:31;102467.78;;;14.22;43.14
17649;BME280;8943;51.110;-4.158;2023-01-30T12:52:21;102475.06;;;14.20;42.96
17649;BME280;8943;51.110;-4.158;2023-01-30T12:55:01;102446.22;;;14.09;42.95
17649;BME280;8943;51.110;-4.158;2023-01-30T12:57:37;102447.06;;;14.10;43.25
17649;BME280;8943;51.110;-4.158;2023-01-30T13:00:24;102448.13;;;14.07;43.63
17649;BME280;8943;51.110;-4.158;2023-01-30T13:03:09;102440.56;;;14.14;43.56
17649;BME280;8943;51.110;-4.158;2023-01-30T13:05:51;102440.84;;;14.09;43.14
17649;BME280;8943;51.110;-4.158;2023-01-30T13:08:32;102438.09;;;14.11;42.82
17649;BME280;8943;51.110;-4.158;2023-01-30T13:11:13;102444.13;;;14.14;42.88
17649;BME280;8943;51.110;-4.158;2023-01-30T13:13:45;102430.44;;;14.19;43.23
17649;BME280;8943;51.110;-4.158;2023-01-30T13:16:24;102422.97;;;14.24;43.27